< Typhoon 199319 1993 Season Typhoon 199321 >
Typhoon 199320 (FLO)
General InformationTrack Information on Google MapsDetailed Wind InformationList of All Images || Disaster Info.ResourceGoogle EarthGE AnimationAtom FeedGeoJSON
Detalied Best Track (Time Zone = UTC)
Year Month Day Hour Lat. Long. Pressure (hPa) Wind (kt) Class Image Chart
1993 10 1 00 16.0 130.0 1004 0 2 Image Chart
1993 10 1 06 16.3 129.4 1002 0 2 Image Chart
1993 10 1 12 16.5 128.7 1000 0 2 Image Chart
1993 10 1 18 16.6 128.0 1000 0 2 Image Chart
1993 10 2 00 16.6 127.3 996 35 3 Image Chart
1993 10 2 06 16.7 126.7 992 40 3 Image Chart
1993 10 2 12 16.8 126.1 990 45 3 Image Chart
1993 10 2 18 16.8 125.6 990 45 3 Image Chart
1993 10 3 00 16.8 125.2 985 50 4 Image Chart
1993 10 3 06 16.8 124.8 985 50 4 Image Chart
1993 10 3 12 16.8 124.3 980 55 4 Image Chart
1993 10 3 18 16.8 123.7 975 60 4 Image Chart
1993 10 4 00 16.7 122.8 970 65 5 Image Chart
1993 10 4 06 16.5 122.0 970 65 5 Image Chart
1993 10 4 12 16.3 121.3 975 60 4 Image Chart
1993 10 4 18 16.4 120.3 980 55 4 Image Chart
1993 10 5 00 16.1 120.2 985 50 4 Image Chart
1993 10 5 06 16.3 120.5 985 50 4 Image Chart
1993 10 5 12 16.6 120.6 990 45 3 Image Chart
1993 10 5 18 17.2 120.8 990 45 3 Image Chart
1993 10 6 00 18.3 121.5 990 45 3 Image Chart
1993 10 6 06 19.2 122.5 990 45 3 Image Chart
1993 10 6 12 19.9 123.7 990 45 3 Image Chart
1993 10 6 18 20.7 124.9 990 45 3 Image Chart
1993 10 7 00 21.5 126.0 990 45 3 Image Chart
1993 10 7 06 22.6 127.6 990 45 3 Image Chart
1993 10 7 12 24.5 129.5 985 50 4 Image Chart
1993 10 7 18 26.7 131.2 985 50 4 Image Chart
1993 10 8 00 29.0 133.3 980 55 4 Image Chart
1993 10 8 06 31.3 136.6 980 55 4 Image Chart
1993 10 8 12 33.8 140.6 980 55 4 Image Chart
1993 10 8 18 36.0 146.5 980 0 6 Image Chart
1993 10 9 00 38.5 153.5 980 0 6 Image Chart
1993 10 9 06 40.0 158.5 976 0 6 Image Chart
1993 10 9 12 41.0 162.0 976 0 6 Image Chart
1993 10 9 18 42.5 165.5 976 0 6 Image Chart
1993 10 10 00 43.5 168.5 976 0 6 Image Chart
1993 10 10 06 45.5 172.5 976 0 6 Image Chart
1993 10 10 12 47.5 175.5 976 0 6 Image Chart
1993 10 10 18 49.0 177.5 976 0 6 Image Chart
1993 10 11 00 51.0 179.5 974 0 6 Image Chart
1993 10 11 06 53.0 181.0 974 0 6 Image Chart
Japan Meteorological Agency Best Track Data | Correction Date : 1994-01-10
< Typhoon 199319 1993 Season Typhoon 199321 >

Help